sensor_id;sensor_type;location;lat;lon;timestamp;P1;durP1;ratioP1;P2;durP2;ratioP2
75768;SDS011;64379;48.888;8.330;2022-10-30T00:01:26;9.27;;;3.10;;
75768;SDS011;64379;48.888;8.330;2022-10-30T00:03:52;11.48;;;2.95;;
75768;SDS011;64379;48.888;8.330;2022-10-30T00:06:17;10.05;;;3.60;;
75768;SDS011;64379;48.888;8.330;2022-10-30T00:08:43;14.45;;;3.92;;
75768;SDS011;64379;48.888;8.330;2022-10-30T00:11:09;9.88;;;3.85;;
75768;SDS011;64379;48.888;8.330;2022-10-30T00:13:37;9.15;;;3.72;;
75768;SDS011;64379;48.888;8.330;2022-10-30T00:16:04;12.73;;;3.80;;
75768;SDS011;64379;48.888;8.330;2022-10-30T00:18:31;12.25;;;4.30;;
75768;SDS011;64379;48.888;8.330;2022-10-30T00:21:06;13.55;;;5.28;;
75768;SDS011;64379;48.888;8.330;2022-10-30T00:23:35;10.05;;;3.75;;
75768;SDS011;64379;48.888;8.330;2022-10-30T00:26:04;8.88;;;3.63;;
75768;SDS011;64379;48.888;8.330;2022-10-30T00:28:31;13.75;;;4.35;;
75768;SDS011;64379;48.888;8.330;2022-10-30T00:30:57;14.77;;;3.70;;
75768;SDS011;64379;48.888;8.330;2022-10-30T00:33:27;10.65;;;4.07;;
75768;SDS011;64379;48.888;8.330;2022-10-30T00:35:53;12.00;;;4.15;;
75768;SDS011;64379;48.888;8.330;2022-10-30T00:38:18;13.50;;;4.40;;
75768;SDS011;64379;48.888;8.330;2022-10-30T00:40:44;12.63;;;3.70;;
75768;SDS011;64379;48.888;8.330;2022-10-30T00:43:29;9.48;;;4.00;;
75768;SDS011;64379;48.888;8.330;2022-10-30T00:46:45;13.52;;;4.10;;
75768;SDS011;64379;48.888;8.330;2022-10-30T00:49:11;12.82;;;3.40;;
75768;SDS011;64379;48.888;8.330;2022-10-30T00:51:41;9.43;;;3.10;;
75768;SDS011;64379;48.888;8.330;2022-10-30T00:54:12;10.93;;;3.20;;
75768;SDS011;64379;48.888;8.330;2022-10-30T00:56:41;8.52;;;3.35;;
75768;SDS011;64379;48.888;8.330;2022-10-30T00:59:10;7.75;;;3.00;;
75768;SDS011;64379;48.888;8.330;2022-10-30T01:01:41;9.10;;;3.20;;
75768;SDS011;64379;48.888;8.330;2022-10-30T01:06:36;14.20;;;3.17;;
75768;SDS011;64379;48.888;8.330;2022-10-30T01:09:04;10.20;;;3.40;;
75768;SDS011;64379;48.888;8.330;2022-10-30T01:11:30;12.85;;;2.90;;
75768;SDS011;64379;48.888;8.330;2022-10-30T01:13:57;10.18;;;2.65;;
75768;SDS011;64379;48.888;8.330;2022-10-30T01:19:17;9.60;;;2.78;;
75768;SDS011;64379;48.888;8.330;2022-10-30T01:25:03;8.63;;;2.80;;
75768;SDS011;64379;48.888;8.330;2022-10-30T01:35:57;13.57;;;3.40;;
75768;SDS011;64379;48.888;8.330;2022-10-30T01:38:34;11.52;;;2.67;;
75768;SDS011;64379;48.888;8.330;2022-10-30T01:41:05;10.13;;;2.97;;
75768;SDS011;64379;48.888;8.330;2022-10-30T01:43:31;9.45;;;3.30;;
75768;SDS011;64379;48.888;8.330;2022-10-30T01:46:15;9.23;;;3.78;;
75768;SDS011;64379;48.888;8.330;2022-10-30T01:49:01;11.65;;;4.43;;
75768;SDS011;64379;48.888;8.330;2022-10-30T01:54:24;13.32;;;4.28;;
75768;SDS011;64379;48.888;8.330;2022-10-30T02:02:06;14.05;;;3.70;;
75768;SDS011;64379;48.888;8.330;2022-10-30T02:04:32;11.70;;;3.67;;
75768;SDS011;64379;48.888;8.330;2022-10-30T02:06:58;8.32;;;3.80;;
75768;SDS011;64379;48.888;8.330;2022-10-30T02:09:24;13.23;;;3.72;;
75768;SDS011;64379;48.888;8.330;2022-10-30T02:11:50;11.38;;;3.55;;
75768;SDS011;64379;48.888;8.330;2022-10-30T02:14:18;12.82;;;4.15;;
75768;SDS011;64379;48.888;8.330;2022-10-30T02:16:49;8.48;;;3.17;;
75768;SDS011;64379;48.888;8.330;2022-10-30T02:19:17;13.35;;;3.95;;
75768;SDS011;64379;48.888;8.330;2022-10-30T02:21:43;9.02;;;3.15;;
75768;SDS011;64379;48.888;8.330;2022-10-30T02:24:11;9.63;;;2.75;;
75768;SDS011;64379;48.888;8.330;2022-10-30T02:26:37;11.15;;;2.72;;
75768;SDS011;64379;48.888;8.330;2022-10-30T02:29:02;9.02;;;2.78;;
75768;SDS011;64379;48.888;8.330;2022-10-30T02:31:28;8.50;;;2.42;;
75768;SDS011;64379;48.888;8.330;2022-10-30T02:33:54;12.95;;;2.67;;
75768;SDS011;64379;48.888;8.330;2022-10-30T02:36:19;10.85;;;2.95;;
75768;SDS011;64379;48.888;8.330;2022-10-30T02:38:45;13.07;;;2.88;;
75768;SDS011;64379;48.888;8.330;2022-10-30T02:41:10;9.02;;;2.80;;
75768;SDS011;64379;48.888;8.330;2022-10-30T02:43:36;6.50;;;2.30;;
75768;SDS011;64379;48.888;8.330;2022-10-30T02:46:02;10.32;;;2.08;;
75768;SDS011;64379;48.888;8.330;2022-10-30T02:48:31;7.03;;;2.25;;
75768;SDS011;64379;48.888;8.330;2022-10-30T02:51:00;7.53;;;1.85;;
75768;SDS011;64379;48.888;8.330;2022-10-30T02:53:26;10.13;;;2.30;;
75768;SDS011;64379;48.888;8.330;2022-10-30T02:55:52;10.32;;;2.30;;
75768;SDS011;64379;48.888;8.330;2022-10-30T02:58:18;8.65;;;2.25;;
75768;SDS011;64379;48.888;8.330;2022-10-30T03:00:43;10.43;;;2.50;;
75768;SDS011;64379;48.888;8.330;2022-10-30T03:03:09;7.63;;;2.50;;
75768;SDS011;64379;48.888;8.330;2022-10-30T03:05:35;8.60;;;2.35;;
75768;SDS011;64379;48.888;8.330;2022-10-30T03:08:00;10.02;;;2.40;;
75768;SDS011;64379;48.888;8.330;2022-10-30T03:10:26;9.52;;;2.15;;
75768;SDS011;64379;48.888;8.330;2022-10-30T03:12:51;8.40;;;2.60;;
75768;SDS011;64379;48.888;8.330;2022-10-30T03:15:17;6.88;;;2.40;;
75768;SDS011;64379;48.888;8.330;2022-10-30T03:17:43;9.07;;;2.33;;
75768;SDS011;64379;48.888;8.330;2022-10-30T03:20:09;8.65;;;2.40;;
75768;SDS011;64379;48.888;8.330;2022-10-30T03:22:35;6.18;;;2.17;;
75768;SDS011;64379;48.888;8.330;2022-10-30T03:25:00;5.88;;;1.90;;
75768;SDS011;64379;48.888;8.330;2022-10-30T03:27:26;5.60;;;1.67;;
75768;SDS011;64379;48.888;8.330;2022-10-30T03:29:51;6.75;;;1.90;;
75768;SDS011;64379;48.888;8.330;2022-10-30T03:32:19;7.22;;;1.80;;
75768;SDS011;64379;48.888;8.330;2022-10-30T03:34:45;4.97;;;1.70;;
75768;SDS011;64379;48.888;8.330;2022-10-30T03:37:10;6.45;;;1.88;;
75768;SDS011;64379;48.888;8.330;2022-10-30T03:39:38;5.35;;;1.75;;
75768;SDS011;64379;48.888;8.330;2022-10-30T03:42:03;8.63;;;2.08;;
75768;SDS011;64379;48.888;8.330;2022-10-30T03:44:29;7.25;;;2.13;;
75768;SDS011;64379;48.888;8.330;2022-10-30T03:46:55;5.97;;;1.90;;
75768;SDS011;64379;48.888;8.330;2022-10-30T03:49:20;7.72;;;2.13;;
75768;SDS011;64379;48.888;8.330;2022-10-30T03:51:46;11.23;;;2.20;;
75768;SDS011;64379;48.888;8.330;2022-10-30T03:54:11;7.85;;;2.03;;
75768;SDS011;64379;48.888;8.330;2022-10-30T03:56:37;6.15;;;1.75;;
75768;SDS011;64379;48.888;8.330;2022-10-30T03:59:03;10.85;;;1.98;;
75768;SDS011;64379;48.888;8.330;2022-10-30T04:01:28;6.20;;;1.90;;
75768;SDS011;64379;48.888;8.330;2022-10-30T04:03:54;6.18;;;2.20;;
75768;SDS011;64379;48.888;8.330;2022-10-30T04:06:20;6.97;;;1.98;;
75768;SDS011;64379;48.888;8.330;2022-10-30T04:08:46;7.25;;;2.28;;
75768;SDS011;64379;48.888;8.330;2022-10-30T04:11:11;10.10;;;2.17;;
75768;SDS011;64379;48.888;8.330;2022-10-30T04:13:37;4.93;;;1.70;;
75768;SDS011;64379;48.888;8.330;2022-10-30T04:16:03;6.60;;;1.98;;
75768;SDS011;64379;48.888;8.330;2022-10-30T04:18:30;5.65;;;2.00;;
75768;SDS011;64379;48.888;8.330;2022-10-30T04:20:57;9.35;;;2.00;;
75768;SDS011;64379;48.888;8.330;2022-10-30T04:23:23;11.18;;;2.38;;
75768;SDS011;64379;48.888;8.330;2022-10-30T04:25:49;8.77;;;2.17;;
75768;SDS011;64379;48.888;8.330;2022-10-30T04:28:15;10.63;;;2.05;;
75768;SDS011;64379;48.888;8.330;2022-10-30T04:30:41;14.75;;;2.10;;
75768;SDS011;64379;48.888;8.330;2022-10-30T04:33:08;8.68;;;2.40;;
75768;SDS011;64379;48.888;8.330;2022-10-30T04:35:36;8.30;;;2.20;;
75768;SDS011;64379;48.888;8.330;2022-10-30T04:38:03;11.13;;;1.77;;
75768;SDS011;64379;48.888;8.330;2022-10-30T04:40:31;6.85;;;1.90;;
75768;SDS011;64379;48.888;8.330;2022-10-30T04:42:59;8.45;;;2.03;;
75768;SDS011;64379;48.888;8.330;2022-10-30T04:45:24;6.93;;;2.10;;
75768;SDS011;64379;48.888;8.330;2022-10-30T04:47:50;4.00;;;1.58;;
75768;SDS011;64379;48.888;8.330;2022-10-30T04:50:16;4.50;;;1.70;;
75768;SDS011;64379;48.888;8.330;2022-10-30T04:52:42;5.88;;;1.65;;
75768;SDS011;64379;48.888;8.330;2022-10-30T04:55:08;9.77;;;2.05;;
75768;SDS011;64379;48.888;8.330;2022-10-30T04:57:35;5.13;;;1.65;;
75768;SDS011;64379;48.888;8.330;2022-10-30T05:00:05;8.52;;;2.38;;
75768;SDS011;64379;48.888;8.330;2022-10-30T05:02:35;5.95;;;1.52;;
75768;SDS011;64379;48.888;8.330;2022-10-30T05:07:26;8.30;;;1.83;;
75768;SDS011;64379;48.888;8.330;2022-10-30T05:09:52;9.70;;;2.38;;
75768;SDS011;64379;48.888;8.330;2022-10-30T05:12:17;5.13;;;1.60;;
75768;SDS011;64379;48.888;8.330;2022-10-30T05:14:43;5.80;;;1.90;;
75768;SDS011;64379;48.888;8.330;2022-10-30T05:17:09;3.55;;;1.40;;
75768;SDS011;64379;48.888;8.330;2022-10-30T05:19:34;4.18;;;1.33;;
75768;SDS011;64379;48.888;8.330;2022-10-30T05:22:00;8.65;;;2.03;;
75768;SDS011;64379;48.888;8.330;2022-10-30T05:24:25;7.53;;;1.80;;
75768;SDS011;64379;48.888;8.330;2022-10-30T05:26:51;7.25;;;1.65;;
75768;SDS011;64379;48.888;8.330;2022-10-30T05:29:17;9.07;;;1.85;;
75768;SDS011;64379;48.888;8.330;2022-10-30T05:31:42;6.65;;;2.00;;
75768;SDS011;64379;48.888;8.330;2022-10-30T05:34:08;5.43;;;2.10;;
75768;SDS011;64379;48.888;8.330;2022-10-30T05:36:36;8.38;;;2.28;;
75768;SDS011;64379;48.888;8.330;2022-10-30T05:39:01;8.98;;;2.13;;
75768;SDS011;64379;48.888;8.330;2022-10-30T05:41:27;6.68;;;2.15;;
75768;SDS011;64379;48.888;8.330;2022-10-30T05:43:53;11.05;;;2.40;;
75768;SDS011;64379;48.888;8.330;2022-10-30T05:46:19;9.98;;;2.40;;
75768;SDS011;64379;48.888;8.330;2022-10-30T05:48:44;7.13;;;2.10;;
75768;SDS011;64379;48.888;8.330;2022-10-30T05:51:10;8.13;;;1.75;;
75768;SDS011;64379;48.888;8.330;2022-10-30T05:53:36;6.50;;;1.85;;
75768;SDS011;64379;48.888;8.330;2022-10-30T05:56:01;7.60;;;1.92;;
75768;SDS011;64379;48.888;8.330;2022-10-30T05:58:27;8.68;;;1.80;;
75768;SDS011;64379;48.888;8.330;2022-10-30T06:00:52;5.10;;;1.50;;
75768;SDS011;64379;48.888;8.330;2022-10-30T06:03:18;10.60;;;2.10;;
75768;SDS011;64379;48.888;8.330;2022-10-30T06:05:44;9.35;;;2.53;;
75768;SDS011;64379;48.888;8.330;2022-10-30T06:08:12;14.45;;;3.78;;
75768;SDS011;64379;48.888;8.330;2022-10-30T06:10:40;9.10;;;3.47;;
75768;SDS011;64379;48.888;8.330;2022-10-30T06:13:06;12.00;;;2.50;;
75768;SDS011;64379;48.888;8.330;2022-10-30T06:15:31;13.23;;;2.90;;
75768;SDS011;64379;48.888;8.330;2022-10-30T06:17:57;8.13;;;2.42;;
75768;SDS011;64379;48.888;8.330;2022-10-30T06:20:25;10.75;;;2.72;;
75768;SDS011;64379;48.888;8.330;2022-10-30T06:23:09;7.50;;;2.50;;
75768;SDS011;64379;48.888;8.330;2022-10-30T06:25:35;7.63;;;2.28;;
75768;SDS011;64379;48.888;8.330;2022-10-30T06:28:01;10.50;;;2.50;;
75768;SDS011;64379;48.888;8.330;2022-10-30T06:30:27;8.70;;;2.30;;
75768;SDS011;64379;48.888;8.330;2022-10-30T06:32:59;6.88;;;2.40;;
75768;SDS011;64379;48.888;8.330;2022-10-30T06:35:27;6.07;;;1.73;;
75768;SDS011;64379;48.888;8.330;2022-10-30T06:37:53;8.52;;;2.42;;
75768;SDS011;64379;48.888;8.330;2022-10-30T06:40:20;9.38;;;2.47;;
75768;SDS011;64379;48.888;8.330;2022-10-30T06:42:50;10.73;;;2.90;;
75768;SDS011;64379;48.888;8.330;2022-10-30T06:45:17;10.75;;;3.33;;
75768;SDS011;64379;48.888;8.330;2022-10-30T06:47:44;11.70;;;2.88;;
75768;SDS011;64379;48.888;8.330;2022-10-30T06:50:11;13.13;;;4.68;;
75768;SDS011;64379;48.888;8.330;2022-10-30T06:52:38;9.38;;;3.78;;
75768;SDS011;64379;48.888;8.330;2022-10-30T06:55:04;11.90;;;3.53;;
75768;SDS011;64379;48.888;8.330;2022-10-30T06:57:30;10.73;;;4.07;;
75768;SDS011;64379;48.888;8.330;2022-10-30T06:59:56;11.40;;;3.40;;
75768;SDS011;64379;48.888;8.330;2022-10-30T07:02:21;11.75;;;4.07;;
75768;SDS011;64379;48.888;8.330;2022-10-30T07:04:47;9.05;;;3.92;;
75768;SDS011;64379;48.888;8.330;2022-10-30T07:07:13;9.63;;;3.40;;
75768;SDS011;64379;48.888;8.330;2022-10-30T07:09:39;9.15;;;3.85;;
75768;SDS011;64379;48.888;8.330;2022-10-30T07:12:05;12.70;;;3.65;;
75768;SDS011;64379;48.888;8.330;2022-10-30T07:14:32;11.60;;;4.10;;
75768;SDS011;64379;48.888;8.330;2022-10-30T07:16:58;10.75;;;3.65;;
75768;SDS011;64379;48.888;8.330;2022-10-30T07:19:23;13.20;;;3.50;;
75768;SDS011;64379;48.888;8.330;2022-10-30T07:21:49;8.13;;;3.85;;
75768;SDS011;64379;48.888;8.330;2022-10-30T07:24:14;11.20;;;3.63;;
75768;SDS011;64379;48.888;8.330;2022-10-30T07:26:40;7.65;;;2.90;;
75768;SDS011;64379;48.888;8.330;2022-10-30T07:29:06;7.53;;;3.08;;
75768;SDS011;64379;48.888;8.330;2022-10-30T07:31:31;10.18;;;2.60;;
75768;SDS011;64379;48.888;8.330;2022-10-30T07:33:57;10.05;;;2.58;;
75768;SDS011;64379;48.888;8.330;2022-10-30T07:36:23;6.97;;;2.45;;
75768;SDS011;64379;48.888;8.330;2022-10-30T07:38:49;7.38;;;2.72;;
75768;SDS011;64379;48.888;8.330;2022-10-30T07:41:18;9.90;;;2.53;;
75768;SDS011;64379;48.888;8.330;2022-10-30T07:43:45;8.02;;;2.15;;
75768;SDS011;64379;48.888;8.330;2022-10-30T07:46:11;7.60;;;2.30;;
75768;SDS011;64379;48.888;8.330;2022-10-30T07:48:37;5.95;;;2.35;;
75768;SDS011;64379;48.888;8.330;2022-10-30T07:51:03;9.18;;;2.38;;
75768;SDS011;64379;48.888;8.330;2022-10-30T07:53:29;8.00;;;2.22;;
75768;SDS011;64379;48.888;8.330;2022-10-30T07:55:55;8.63;;;2.53;;
75768;SDS011;64379;48.888;8.330;2022-10-30T07:58:21;11.75;;;3.35;;
75768;SDS011;64379;48.888;8.330;2022-10-30T08:00:46;11.13;;;2.42;;
75768;SDS011;64379;48.888;8.330;2022-10-30T08:03:12;9.15;;;2.47;;
75768;SDS011;64379;48.888;8.330;2022-10-30T08:05:38;10.65;;;2.70;;
75768;SDS011;64379;48.888;8.330;2022-10-30T08:08:04;7.15;;;2.20;;
75768;SDS011;64379;48.888;8.330;2022-10-30T08:10:30;7.55;;;2.80;;
75768;SDS011;64379;48.888;8.330;2022-10-30T08:12:56;11.15;;;2.38;;
75768;SDS011;64379;48.888;8.330;2022-10-30T08:15:22;9.27;;;2.47;;
75768;SDS011;64379;48.888;8.330;2022-10-30T08:17:50;9.20;;;2.10;;
75768;SDS011;64379;48.888;8.330;2022-10-30T08:23:04;7.10;;;2.17;;
75768;SDS011;64379;48.888;8.330;2022-10-30T08:25:29;10.52;;;2.75;;
75768;SDS011;64379;48.888;8.330;2022-10-30T08:27:56;10.27;;;2.45;;
75768;SDS011;64379;48.888;8.330;2022-10-30T08:30:31;10.98;;;2.63;;
75768;SDS011;64379;48.888;8.330;2022-10-30T08:33:02;11.02;;;2.42;;
75768;SDS011;64379;48.888;8.330;2022-10-30T08:37:57;10.05;;;2.70;;
75768;SDS011;64379;48.888;8.330;2022-10-30T08:40:24;6.07;;;2.13;;
75768;SDS011;64379;48.888;8.330;2022-10-30T08:42:50;8.70;;;2.85;;
75768;SDS011;64379;48.888;8.330;2022-10-30T08:45:17;9.32;;;2.40;;
75768;SDS011;64379;48.888;8.330;2022-10-30T08:47:43;9.63;;;2.20;;
75768;SDS011;64379;48.888;8.330;2022-10-30T08:50:09;10.07;;;2.45;;
75768;SDS011;64379;48.888;8.330;2022-10-30T08:52:35;9.65;;;1.90;;
75768;SDS011;64379;48.888;8.330;2022-10-30T08:55:01;36.33;;;5.50;;
75768;SDS011;64379;48.888;8.330;2022-10-30T08:57:48;8.40;;;1.80;;
75768;SDS011;64379;48.888;8.330;2022-10-30T09:00:14;10.52;;;2.38;;
75768;SDS011;64379;48.888;8.330;2022-10-30T09:02:40;8.82;;;2.05;;
75768;SDS011;64379;48.888;8.330;2022-10-30T09:05:06;7.38;;;1.75;;
75768;SDS011;64379;48.888;8.330;2022-10-30T09:07:33;10.65;;;2.40;;
75768;SDS011;64379;48.888;8.330;2022-10-30T09:09:59;7.22;;;2.00;;
75768;SDS011;64379;48.888;8.330;2022-10-30T09:12:25;9.23;;;2.13;;
75768;SDS011;64379;48.888;8.330;2022-10-30T09:14:51;8.13;;;2.17;;
75768;SDS011;64379;48.888;8.330;2022-10-30T09:17:16;12.85;;;2.13;;
75768;SDS011;64379;48.888;8.330;2022-10-30T09:19:42;7.53;;;2.03;;
75768;SDS011;64379;48.888;8.330;2022-10-30T09:22:07;7.05;;;1.98;;
75768;SDS011;64379;48.888;8.330;2022-10-30T09:24:33;9.30;;;2.08;;
75768;SDS011;64379;48.888;8.330;2022-10-30T09:26:58;14.38;;;2.40;;
75768;SDS011;64379;48.888;8.330;2022-10-30T09:29:24;11.23;;;1.92;;
75768;SDS011;64379;48.888;8.330;2022-10-30T09:31:50;8.98;;;2.17;;
75768;SDS011;64379;48.888;8.330;2022-10-30T09:34:15;8.45;;;2.42;;
75768;SDS011;64379;48.888;8.330;2022-10-30T09:36:41;9.68;;;1.85;;
75768;SDS011;64379;48.888;8.330;2022-10-30T09:39:11;6.18;;;2.15;;
75768;SDS011;64379;48.888;8.330;2022-10-30T09:58:32;9.80;;;2.45;;
75768;SDS011;64379;48.888;8.330;2022-10-30T10:01:18;8.00;;;2.17;;
75768;SDS011;64379;48.888;8.330;2022-10-30T10:06:51;12.43;;;2.30;;
75768;SDS011;64379;48.888;8.330;2022-10-30T10:09:19;9.65;;;2.53;;
75768;SDS011;64379;48.888;8.330;2022-10-30T10:11:52;13.00;;;2.90;;
75768;SDS011;64379;48.888;8.330;2022-10-30T10:14:23;13.68;;;2.55;;
75768;SDS011;64379;48.888;8.330;2022-10-30T10:16:54;9.40;;;2.38;;
75768;SDS011;64379;48.888;8.330;2022-10-30T10:19:29;12.05;;;2.95;;
75768;SDS011;64379;48.888;8.330;2022-10-30T10:22:01;8.63;;;2.42;;
75768;SDS011;64379;48.888;8.330;2022-10-30T10:24:31;9.32;;;2.40;;
75768;SDS011;64379;48.888;8.330;2022-10-30T10:40:43;10.65;;;2.58;;
75768;SDS011;64379;48.888;8.330;2022-10-30T10:51:18;10.18;;;2.45;;
75768;SDS011;64379;48.888;8.330;2022-10-30T10:53:50;10.88;;;2.30;;
75768;SDS011;64379;48.888;8.330;2022-10-30T10:56:18;11.43;;;2.70;;
75768;SDS011;64379;48.888;8.330;2022-10-30T11:01:40;6.43;;;2.45;;
75768;SDS011;64379;48.888;8.330;2022-10-30T11:04:13;8.40;;;2.58;;
75768;SDS011;64379;48.888;8.330;2022-10-30T11:06:48;11.20;;;2.40;;
75768;SDS011;64379;48.888;8.330;2022-10-30T11:09:17;8.18;;;2.45;;
75768;SDS011;64379;48.888;8.330;2022-10-30T11:14:14;12.02;;;2.58;;
75768;SDS011;64379;48.888;8.330;2022-10-30T11:19:36;9.32;;;2.40;;
75768;SDS011;64379;48.888;8.330;2022-10-30T11:22:01;7.85;;;2.72;;
75768;SDS011;64379;48.888;8.330;2022-10-30T11:24:35;11.63;;;2.55;;
75768;SDS011;64379;48.888;8.330;2022-10-30T11:32:25;8.73;;;2.55;;
75768;SDS011;64379;48.888;8.330;2022-10-30T11:35:13;7.82;;;2.53;;
75768;SDS011;64379;48.888;8.330;2022-10-30T11:37:42;10.95;;;2.58;;
75768;SDS011;64379;48.888;8.330;2022-10-30T11:42:40;12.15;;;2.88;;
75768;SDS011;64379;48.888;8.330;2022-10-30T11:45:23;9.85;;;2.20;;
75768;SDS011;64379;48.888;8.330;2022-10-30T11:47:49;11.88;;;3.15;;
75768;SDS011;64379;48.888;8.330;2022-10-30T11:50:20;9.70;;;2.60;;
75768;SDS011;64379;48.888;8.330;2022-10-30T11:52:52;8.60;;;2.67;;
75768;SDS011;64379;48.888;8.330;2022-10-30T11:55:25;11.32;;;3.00;;
75768;SDS011;64379;48.888;8.330;2022-10-30T11:57:54;7.82;;;2.35;;
75768;SDS011;64379;48.888;8.330;2022-10-30T12:00:22;10.82;;;2.50;;
75768;SDS011;64379;48.888;8.330;2022-10-30T12:02:48;9.13;;;2.38;;
75768;SDS011;64379;48.888;8.330;2022-10-30T12:05:35;9.10;;;2.42;;
75768;SDS011;64379;48.888;8.330;2022-10-30T12:10:32;10.05;;;2.50;;
75768;SDS011;64379;48.888;8.330;2022-10-30T12:13:04;7.10;;;2.65;;
75768;SDS011;64379;48.888;8.330;2022-10-30T12:15:41;9.15;;;2.70;;
75768;SDS011;64379;48.888;8.330;2022-10-30T12:18:14;9.85;;;2.33;;
75768;SDS011;64379;48.888;8.330;2022-10-30T12:20:47;8.40;;;2.20;;
75768;SDS011;64379;48.888;8.330;2022-10-30T12:23:17;11.93;;;2.70;;
75768;SDS011;64379;48.888;8.330;2022-10-30T12:25:58;8.02;;;2.47;;
75768;SDS011;64379;48.888;8.330;2022-10-30T12:28:34;5.93;;;1.88;;
75768;SDS011;64379;48.888;8.330;2022-10-30T12:33:42;8.02;;;2.42;;
75768;SDS011;64379;48.888;8.330;2022-10-30T12:36:13;7.60;;;2.45;;
75768;SDS011;64379;48.888;8.330;2022-10-30T12:41:12;6.85;;;2.38;;
75768;SDS011;64379;48.888;8.330;2022-10-30T12:43:54;8.15;;;2.30;;
75768;SDS011;64379;48.888;8.330;2022-10-30T12:46:44;7.40;;;2.20;;
75768;SDS011;64379;48.888;8.330;2022-10-30T12:49:24;10.52;;;2.35;;
75768;SDS011;64379;48.888;8.330;2022-10-30T12:57:23;11.20;;;2.20;;
75768;SDS011;64379;48.888;8.330;2022-10-30T13:00:01;6.95;;;2.00;;
75768;SDS011;64379;48.888;8.330;2022-10-30T13:02:51;10.20;;;2.40;;
75768;SDS011;64379;48.888;8.330;2022-10-30T13:05:46;7.50;;;2.22;;
75768;SDS011;64379;48.888;8.330;2022-10-30T13:13:15;7.15;;;2.20;;
75768;SDS011;64379;48.888;8.330;2022-10-30T13:15:57;9.50;;;2.38;;
75768;SDS011;64379;48.888;8.330;2022-10-30T13:18:26;6.50;;;2.13;;
75768;SDS011;64379;48.888;8.330;2022-10-30T13:28:40;11.45;;;2.33;;
75768;SDS011;64379;48.888;8.330;2022-10-30T13:38:49;11.13;;;2.55;;
75768;SDS011;64379;48.888;8.330;2022-10-30T13:41:29;7.65;;;2.35;;
75768;SDS011;64379;48.888;8.330;2022-10-30T13:52:43;10.90;;;2.30;;
75768;SDS011;64379;48.888;8.330;2022-10-30T13:55:32;7.82;;;2.40;;
75768;SDS011;64379;48.888;8.330;2022-10-30T14:00:56;10.27;;;2.33;;
75768;SDS011;64379;48.888;8.330;2022-10-30T14:09:09;9.38;;;2.45;;
75768;SDS011;64379;48.888;8.330;2022-10-30T14:11:51;13.85;;;2.75;;
75768;SDS011;64379;48.888;8.330;2022-10-30T14:17:09;9.43;;;2.53;;
75768;SDS011;64379;48.888;8.330;2022-10-30T14:24:57;11.45;;;2.75;;
75768;SDS011;64379;48.888;8.330;2022-10-30T14:27:30;7.30;;;2.30;;
75768;SDS011;64379;48.888;8.330;2022-10-30T14:29:57;8.43;;;2.85;;
75768;SDS011;64379;48.888;8.330;2022-10-30T14:43:19;8.52;;;1.90;;
75768;SDS011;64379;48.888;8.330;2022-10-30T14:46:19;8.55;;;2.03;;
75768;SDS011;64379;48.888;8.330;2022-10-30T14:54:53;9.40;;;2.30;;
75768;SDS011;64379;48.888;8.330;2022-10-30T15:05:51;6.18;;;2.42;;
75768;SDS011;64379;48.888;8.330;2022-10-30T15:13:43;7.82;;;2.75;;
75768;SDS011;64379;48.888;8.330;2022-10-30T15:16:16;9.57;;;2.95;;
75768;SDS011;64379;48.888;8.330;2022-10-30T15:18:45;10.35;;;2.53;;
75768;SDS011;64379;48.888;8.330;2022-10-30T15:21:17;7.72;;;2.33;;
75768;SDS011;64379;48.888;8.330;2022-10-30T15:23:48;9.60;;;2.67;;
75768;SDS011;64379;48.888;8.330;2022-10-30T15:26:19;7.72;;;2.63;;
75768;SDS011;64379;48.888;8.330;2022-10-30T15:28:49;9.63;;;2.40;;
75768;SDS011;64379;48.888;8.330;2022-10-30T15:33:42;10.80;;;2.90;;
75768;SDS011;64379;48.888;8.330;2022-10-30T15:36:18;10.35;;;3.28;;
75768;SDS011;64379;48.888;8.330;2022-10-30T15:41:53;8.27;;;2.80;;
75768;SDS011;64379;48.888;8.330;2022-10-30T15:44:22;11.05;;;2.70;;
75768;SDS011;64379;48.888;8.330;2022-10-30T15:46:51;8.25;;;2.75;;
75768;SDS011;64379;48.888;8.330;2022-10-30T15:49:20;8.77;;;2.50;;
75768;SDS011;64379;48.888;8.330;2022-10-30T15:52:27;9.45;;;2.70;;
75768;SDS011;64379;48.888;8.330;2022-10-30T15:55:16;11.25;;;3.35;;
75768;SDS011;64379;48.888;8.330;2022-10-30T15:57:43;9.77;;;2.60;;
75768;SDS011;64379;48.888;8.330;2022-10-30T16:00:29;8.48;;;3.03;;
75768;SDS011;64379;48.888;8.330;2022-10-30T16:02:58;7.45;;;2.42;;
75768;SDS011;64379;48.888;8.330;2022-10-30T16:05:31;9.60;;;2.30;;
75768;SDS011;64379;48.888;8.330;2022-10-30T16:07:59;8.25;;;2.50;;
75768;SDS011;64379;48.888;8.330;2022-10-30T16:10:27;11.07;;;2.60;;
75768;SDS011;64379;48.888;8.330;2022-10-30T16:12:57;8.75;;;2.60;;
75768;SDS011;64379;48.888;8.330;2022-10-30T16:15:27;11.45;;;3.30;;
75768;SDS011;64379;48.888;8.330;2022-10-30T16:18:06;7.30;;;3.45;;
75768;SDS011;64379;48.888;8.330;2022-10-30T16:20:32;11.40;;;3.15;;
75768;SDS011;64379;48.888;8.330;2022-10-30T16:23:00;8.10;;;2.72;;
75768;SDS011;64379;48.888;8.330;2022-10-30T16:25:26;8.02;;;2.30;;
75768;SDS011;64379;48.888;8.330;2022-10-30T16:27:52;9.75;;;2.58;;
75768;SDS011;64379;48.888;8.330;2022-10-30T16:30:18;8.00;;;2.63;;
75768;SDS011;64379;48.888;8.330;2022-10-30T16:32:49;10.98;;;2.95;;
75768;SDS011;64379;48.888;8.330;2022-10-30T16:35:19;11.20;;;3.47;;
75768;SDS011;64379;48.888;8.330;2022-10-30T16:37:46;10.25;;;3.35;;
75768;SDS011;64379;48.888;8.330;2022-10-30T16:40:22;9.68;;;3.60;;
75768;SDS011;64379;48.888;8.330;2022-10-30T16:42:56;8.82;;;4.05;;
75768;SDS011;64379;48.888;8.330;2022-10-30T16:48:00;9.00;;;3.83;;
75768;SDS011;64379;48.888;8.330;2022-10-30T16:50:35;11.07;;;3.58;;
75768;SDS011;64379;48.888;8.330;2022-10-30T16:53:05;13.27;;;3.70;;
75768;SDS011;64379;48.888;8.330;2022-10-30T16:55:44;11.13;;;3.33;;
75768;SDS011;64379;48.888;8.330;2022-10-30T16:58:11;12.20;;;3.10;;
75768;SDS011;64379;48.888;8.330;2022-10-30T17:00:39;10.63;;;3.10;;
75768;SDS011;64379;48.888;8.330;2022-10-30T17:03:11;13.55;;;3.80;;
75768;SDS011;64379;48.888;8.330;2022-10-30T17:05:37;14.77;;;3.97;;
75768;SDS011;64379;48.888;8.330;2022-10-30T17:13:32;11.48;;;3.70;;
75768;SDS011;64379;48.888;8.330;2022-10-30T17:18:40;15.52;;;3.53;;
75768;SDS011;64379;48.888;8.330;2022-10-30T17:21:12;11.73;;;3.30;;
75768;SDS011;64379;48.888;8.330;2022-10-30T17:23:43;9.80;;;3.08;;
75768;SDS011;64379;48.888;8.330;2022-10-30T17:26:22;7.70;;;2.70;;
75768;SDS011;64379;48.888;8.330;2022-10-30T17:28:49;6.88;;;2.30;;
75768;SDS011;64379;48.888;8.330;2022-10-30T17:36:37;11.73;;;4.15;;
75768;SDS011;64379;48.888;8.330;2022-10-30T17:39:02;8.98;;;3.40;;
75768;SDS011;64379;48.888;8.330;2022-10-30T17:41:28;11.68;;;4.20;;
75768;SDS011;64379;48.888;8.330;2022-10-30T17:43:54;7.85;;;3.78;;
75768;SDS011;64379;48.888;8.330;2022-10-30T17:46:21;10.25;;;4.28;;
75768;SDS011;64379;48.888;8.330;2022-10-30T17:48:47;11.02;;;4.68;;
75768;SDS011;64379;48.888;8.330;2022-10-30T17:51:14;12.57;;;5.95;;
75768;SDS011;64379;48.888;8.330;2022-10-30T17:53:40;16.48;;;5.80;;
75768;SDS011;64379;48.888;8.330;2022-10-30T17:56:10;10.27;;;3.40;;
75768;SDS011;64379;48.888;8.330;2022-10-30T17:58:43;10.13;;;3.75;;
75768;SDS011;64379;48.888;8.330;2022-10-30T18:01:12;10.30;;;3.50;;
75768;SDS011;64379;48.888;8.330;2022-10-30T18:03:43;10.23;;;3.70;;
75768;SDS011;64379;48.888;8.330;2022-10-30T18:06:13;11.00;;;4.80;;
75768;SDS011;64379;48.888;8.330;2022-10-30T18:08:43;10.30;;;3.70;;
75768;SDS011;64379;48.888;8.330;2022-10-30T18:11:10;14.00;;;4.85;;
75768;SDS011;64379;48.888;8.330;2022-10-30T18:13:37;11.30;;;4.85;;
75768;SDS011;64379;48.888;8.330;2022-10-30T18:16:03;9.95;;;4.55;;